Observation data for Tulia on 02/15/2018      Previous  Date  Next       Current Mesonet Observations  Soil Data  Daily Summary Page  Observations in Plain Language
KTIS 150600Z 23010KT 14/00 A2998 RMK A01 T01410001  RH  039%=      5-min Rain = 0
KTIS 150605Z 24012KT 15/00 A2998 RMK A01 T01460001  RH  037%=      5-min Rain = 0
KTIS 150610Z 23012KT 15/00 A2999 RMK A01 T01500002  RH  037%=      5-min Rain = 0
KTIS 150615Z 23012KT 15/00 A2998 RMK A01 T01520004  RH  037%=      5-min Rain = 0
KTIS 150620Z 23012KT 15/01 A2998 RMK A01 T01530005  RH  037%=      5-min Rain = 0
KTIS 150625Z 23011KT 15/01 A2998 RMK A01 T01530007  RH  037%=      5-min Rain = 0
KTIS 150630Z 23013KT 16/01 A2998 RMK A01 T01550010  RH  038%=      5-min Rain = 0
KTIS 150635Z 23012KT 16/01 A2998 RMK A01 T01560012  RH  038%=      5-min Rain = 0
KTIS 150640Z 22011KT 15/01 A2998 RMK A01 T01540010  RH  038%=      5-min Rain = 0
KTIS 150645Z 21010KT 15/01 A2998 RMK A01 T01480008  RH  039%=      5-min Rain = 0
KTIS 150650Z 22011KT 15/01 A2998 RMK A01 T01460011  RH  040%=      5-min Rain = 0
KTIS 150655Z 23013KT 15/02 A2998 RMK A01 T01510017  RH  041%=      5-min Rain = 0
KTIS 150700Z 23014KT 16/02 A2997 RMK A01 T01560021  RH  041%=      5-min Rain = 0
KTIS 150705Z 23014KT 16/02 A2998 RMK A01 T01580022  RH  040%=      5-min Rain = 0
KTIS 150710Z 22012KT 16/02 A2998 RMK A01 T01560021  RH  040%=      5-min Rain = 0
KTIS 150715Z 22012KT 15/02 A2998 RMK A01 T01530018  RH  041%=      5-min Rain = 0
KTIS 150720Z 22011KT 15/02 A2998 RMK A01 T01510018  RH  041%=      5-min Rain = 0
KTIS 150725Z 23012KT 15/02 A2998 RMK A01 T01500019  RH  042%=      5-min Rain = 0
KTIS 150730Z 23012KT 15/02 A2998 RMK A01 T01490020  RH  042%=      5-min Rain = 0
KTIS 150735Z 23013KT 15/02 A2998 RMK A01 T01480021  RH  043%=      5-min Rain = 0
KTIS 150740Z 23013KT 15/02 A2998 RMK A01 T01470022  RH  043%=      5-min Rain = 0
KTIS 150745Z 24014KT 15/02 A2998 RMK A01 T01460023  RH  044%=      5-min Rain = 0
KTIS 150750Z 23012KT 14/02 A2998 RMK A01 T01440022  RH  044%=      5-min Rain = 0
KTIS 150755Z 23011KT 14/02 A2998 RMK A01 T01410022  RH  045%=      5-min Rain = 0
KTIS 150800Z 23012KT 14/02 A2998 RMK A01 T01390023  RH  046%=      5-min Rain = 0
KTIS 150805Z 23012KT 14/02 A2998 RMK A01 T01380021  RH  046%=      5-min Rain = 0
KTIS 150810Z 23012KT 14/02 A2998 RMK A01 T01360021  RH  046%=      5-min Rain = 0
KTIS 150815Z 23012KT 14/02 A2998 RMK A01 T01370023  RH  047%=      5-min Rain = 0
KTIS 150820Z 23012KT 14/02 A2997 RMK A01 T01360023  RH  047%=      5-min Rain = 0
KTIS 150825Z 22012KT 14/02 A2997 RMK A01 T01350024  RH  047%=      5-min Rain = 0
KTIS 150830Z 20010KT 13/02 A2998 RMK A01 T01320023  RH  048%=      5-min Rain = 0
KTIS 150835Z 19008KT 13/02 A2998 RMK A01 T01250021  RH  050%=      5-min Rain = 0
KTIS 150840Z 20008KT 12/02 A2998 RMK A01 T01200020  RH  051%=      5-min Rain = 0
KTIS 150845Z 20007KT 12/02 A2998 RMK A01 T01160020  RH  052%=      5-min Rain = 0
KTIS 150850Z 20008KT 11/02 A2998 RMK A01 T01120018  RH  053%=      5-min Rain = 0
KTIS 150855Z 20009KT 11/02 A2998 RMK A01 T01090017  RH  053%=      5-min Rain = 0
KTIS 150900Z 20009KT 11/02 A2998 RMK A01 T01080016  RH  054%=      5-min Rain = 0
KTIS 150905Z 19008KT 11/02 A2998 RMK A01 T01050015  RH  054%=      5-min Rain = 0
KTIS 150910Z 19008KT 10/02 A2998 RMK A01 T01020015  RH  055%=      5-min Rain = 0
KTIS 150915Z 22007KT 10/01 A2998 RMK A01 T01010014  RH  055%=      5-min Rain = 0
KTIS 150920Z 23008KT 10/02 A2998 RMK A01 T01020017  RH  056%=      5-min Rain = 0
KTIS 150925Z 22010KT 11/02 A2998 RMK A01 T01070019  RH  055%=      5-min Rain = 0
KTIS 150930Z 21009KT 11/02 A2998 RMK A01 T01080019  RH  055%=      5-min Rain = 0
KTIS 150935Z 20008KT 11/02 A2997 RMK A01 T01050017  RH  055%=      5-min Rain = 0
KTIS 150940Z 20008KT 10/02 A2997 RMK A01 T01000016  RH  057%=      5-min Rain = 0
KTIS 150945Z 21009KT 10/02 A2997 RMK A01 T01000017  RH  057%=      5-min Rain = 0
KTIS 150950Z 21009KT 10/02 A2996 RMK A01 T01040020  RH  056%=      5-min Rain = 0
KTIS 150955Z 22007KT 10/02 A2996 RMK A01 T01040019  RH  056%=      5-min Rain = 0
KTIS 151000Z 22008KT 10/02 A2996 RMK A01 T01030019  RH  057%=      5-min Rain = 0
KTIS 151005Z 24007KT 10/02 A2996 RMK A01 T01020019  RH  057%=      5-min Rain = 0
KTIS 151010Z 25007KT 10/02 A2997 RMK A01 T01000019  RH  058%=      5-min Rain = 0
KTIS 151015Z 25007KT 10/02 A2997 RMK A01 T01000019  RH  058%=      5-min Rain = 0
KTIS 151020Z 24008KT 10/02 A2997 RMK A01 T00990019  RH  058%=      5-min Rain = 0
KTIS 151025Z 25007KT 10/02 A2996 RMK A01 T00980018  RH  058%=      5-min Rain = 0
KTIS 151030Z 24008KT 10/02 A2996 RMK A01 T00970018  RH  059%=      5-min Rain = 0
KTIS 151035Z 25008KT 10/02 A2996 RMK A01 T00970018  RH  058%=      5-min Rain = 0
KTIS 151040Z 25008KT 10/02 A2996 RMK A01 T00970018  RH  059%=      5-min Rain = 0
KTIS 151045Z 24010KT 10/02 A2996 RMK A01 T01000019  RH  058%=      5-min Rain = 0
KTIS 151050Z 23010KT 10/02 A2995 RMK A01 T01040020  RH  057%=      5-min Rain = 0
KTIS 151055Z 24009KT 10/02 A2995 RMK A01 T01020020  RH  058%=      5-min Rain = 0
KTIS 151100Z 24009KT 10/02 A2995 RMK A01 T00990020  RH  058%=      5-min Rain = 0
KTIS 151105Z 23010KT 10/02 A2995 RMK A01 T01000020  RH  058%=      5-min Rain = 0
KTIS 151110Z 22011KT 10/02 A2994 RMK A01 T01010020  RH  058%=      5-min Rain = 0
KTIS 151115Z 22010KT 10/02 A2994 RMK A01 T00970018  RH  059%=      5-min Rain = 0
KTIS 151120Z 23010KT 09/02 A2994 RMK A01 T00920017  RH  060%=      5-min Rain = 0
KTIS 151125Z 24008KT 09/02 A2995 RMK A01 T00900016  RH  061%=      5-min Rain = 0
KTIS 151130Z 22009KT 09/02 A2995 RMK A01 T00890016  RH  061%=      5-min Rain = 0
KTIS 151135Z 23009KT 09/02 A2994 RMK A01 T00890016  RH  061%=      5-min Rain = 0
KTIS 151140Z 24008KT 09/02 A2994 RMK A01 T00880016  RH  061%=      5-min Rain = 0
KTIS 151145Z 24008KT 09/02 A2994 RMK A01 T00850015  RH  062%=      5-min Rain = 0
KTIS 151150Z 21009KT 08/02 A2994 RMK A01 T00840015  RH  063%=      5-min Rain = 0
KTIS 151155Z 21010KT 08/02 A2994 RMK A01 T00830015  RH  063%=      5-min Rain = 0
KTIS 151200Z 25009KT 08/02 A2994 RMK A01 T00830015  RH  063%=      5-min Rain = 0
KTIS 151205Z 24009KT 08/02 A2994 RMK A01 T00820015  RH  063%=      5-min Rain = 0
KTIS 151210Z 23009KT 08/02 A2994 RMK A01 T00810015  RH  064%=      5-min Rain = 0
KTIS 151215Z 23009KT 08/01 A2994 RMK A01 T00800014  RH  064%=      5-min Rain = 0
KTIS 151220Z 25009KT 08/02 A2994 RMK A01 T00800015  RH  064%=      5-min Rain = 0
KTIS 151225Z 23009KT 08/02 A2994 RMK A01 T00810016  RH  064%=      5-min Rain = 0
KTIS 151230Z 24011KT 09/02 A2994 RMK A01 T00850019  RH  064%=      5-min Rain = 0
KTIS 151235Z 24012KT 09/02 A2994 RMK A01 T00880020  RH  063%=      5-min Rain = 0
KTIS 151240Z 25011KT 09/02 A2994 RMK A01 T00920022  RH  062%=      5-min Rain = 0
KTIS 151245Z 24012KT 10/02 A2994 RMK A01 T00960024  RH  061%=      5-min Rain = 0
KTIS 151250Z 24012KT 10/03 A2994 RMK A01 T00990025  RH  061%=      5-min Rain = 0
KTIS 151255Z 24012KT 10/03 A2994 RMK A01 T00990025  RH  061%=      5-min Rain = 0
KTIS 151300Z 24012KT 10/03 A2994 RMK A01 T00990025  RH  061%=      5-min Rain = 0
KTIS 151305Z 25011KT 10/03 A2995 RMK A01 T01010026  RH  061%=      5-min Rain = 0
KTIS 151310Z 28012KT 10/03 A2996 RMK A01 T01020026  RH  060%=      5-min Rain = 0
KTIS 151315Z 31011KT 08/02 A2997 RMK A01 T00830018  RH  065%=      5-min Rain = 0
KTIS 151320Z 29012KT 08/02 A2997 RMK A01 T00830024  RH  067%=      5-min Rain = 0
KTIS 151325Z 29009KT 08/02 A2996 RMK A01 T00840024  RH  067%=      5-min Rain = 0
KTIS 151330Z 28008KT 08/02 A2996 RMK A01 T00810024  RH  068%=      5-min Rain = 0
KTIS 151335Z 28009KT 08/03 A2996 RMK A01 T00830026  RH  068%=      5-min Rain = 0
KTIS 151340Z 28009KT 08/02 A2996 RMK A01 T00820024  RH  068%=      5-min Rain = 0
KTIS 151345Z 28008KT 08/03 A2996 RMK A01 T00820026  RH  068%=      5-min Rain = 0
KTIS 151350Z 28009KT 08/03 A2996 RMK A01 T00820026  RH  068%=      5-min Rain = 0
KTIS 151355Z 28008KT 08/03 A2996 RMK A01 T00820027  RH  069%=      5-min Rain = 0
KTIS 151400Z 27008KT 09/03 A2996 RMK A01 T00850029  RH  069%=      5-min Rain = 0
KTIS 151405Z 27008KT 09/03 A2996 RMK A01 T00900031  RH  067%=      5-min Rain = 0
KTIS 151410Z 27008KT 09/03 A2996 RMK A01 T00920032  RH  067%=      5-min Rain = 0
KTIS 151415Z 28007KT 09/03 A2996 RMK A01 T00920031  RH  067%=      5-min Rain = 0
KTIS 151420Z 28007KT 09/03 A2996 RMK A01 T00900032  RH  068%=      5-min Rain = 0
KTIS 151425Z 28007KT 09/03 A2996 RMK A01 T00910033  RH  068%=      5-min Rain = 0
KTIS 151430Z 28007KT 09/04 A2997 RMK A01 T00920035  RH  068%=      5-min Rain = 0
KTIS 151435Z 28007KT 10/04 A2997 RMK A01 T00950037  RH  068%=      5-min Rain = 0
KTIS 151440Z 28006KT 10/04 A2997 RMK A01 T00960037  RH  068%=      5-min Rain = 0
KTIS 151445Z 28006KT 10/04 A2997 RMK A01 T00980039  RH  068%=      5-min Rain = 0
KTIS 151450Z 29007KT 10/04 A2997 RMK A01 T00990040  RH  068%=      5-min Rain = 0
KTIS 151455Z 28007KT 10/04 A2997 RMK A01 T01000042  RH  068%=      5-min Rain = 0
KTIS 151500Z 29008KT 10/04 A2997 RMK A01 T01010043  RH  068%=      5-min Rain = 0
KTIS 151505Z 29008KT 10/04 A2998 RMK A01 T01030044  RH  067%=      5-min Rain = 0
KTIS 151510Z 28007KT 11/05 A2998 RMK A01 T01050045  RH  067%=      5-min Rain = 0
KTIS 151515Z 28007KT 11/05 A2998 RMK A01 T01070047  RH  067%=      5-min Rain = 0
KTIS 151520Z 27007KT 11/05 A2998 RMK A01 T01110049  RH  066%=      5-min Rain = 0
KTIS 151525Z 27007KT 12/05 A2998 RMK A01 T01150051  RH  066%=      5-min Rain = 0
KTIS 151530Z 27007KT 12/05 A2998 RMK A01 T01180053  RH  065%=      5-min Rain = 0
KTIS 151535Z 27006KT 12/06 A2998 RMK A01 T01220055  RH  064%=      5-min Rain = 0
KTIS 151540Z 27007KT 12/06 A2998 RMK A01 T01240056  RH  064%=      5-min Rain = 0
KTIS 151545Z 27007KT 13/06 A2998 RMK A01 T01280058  RH  063%=      5-min Rain = 0
KTIS 151550Z 28009KT 13/06 A2998 RMK A01 T01320060  RH  063%=      5-min Rain = 0
KTIS 151555Z 28010KT 14/06 A2999 RMK A01 T01370062  RH  061%=      5-min Rain = 0
KTIS 151600Z 28010KT 14/06 A2999 RMK A01 T01390062  RH  061%=      5-min Rain = 0
KTIS 151605Z 28010KT 14/06 A2999 RMK A01 T01410062  RH  060%=      5-min Rain = 0
KTIS 151610Z 28010KT 14/06 A2998 RMK A01 T01420062  RH  059%=      5-min Rain = 0
KTIS 151615Z 28010KT 14/06 A2999 RMK A01 T01430062  RH  059%=      5-min Rain = 0
KTIS 151620Z 28010KT 14/06 A2999 RMK A01 T01440063  RH  059%=      5-min Rain = 0
KTIS 151625Z 28010KT 15/06 A2999 RMK A01 T01460063  RH  058%=      5-min Rain = 0
KTIS 151630Z 27010KT 15/06 A2999 RMK A01 T01470064  RH  058%=      5-min Rain = 0
KTIS 151635Z 28010KT 15/06 A2999 RMK A01 T01490064  RH  058%=      5-min Rain = 0
KTIS 151640Z 27008KT 15/07 A2999 RMK A01 T01510065  RH  057%=      5-min Rain = 0
KTIS 151645Z 27011KT 15/07 A2999 RMK A01 T01530065  RH  056%=      5-min Rain = 0
KTIS 151650Z 27011KT 16/07 A2999 RMK A01 T01570066  RH  056%=      5-min Rain = 0
KTIS 151655Z 27011G16KT 16/07 A2999 RMK A01 T01610067  RH  054%=      5-min Rain = 0
KTIS 151700Z 27012G17KT 17/07 A2999 RMK A01 T01670067  RH  052%=      5-min Rain = 0
KTIS 151705Z 27013KT 17/07 A2999 RMK A01 T01700067  RH  051%=      5-min Rain = 0
KTIS 151710Z 27015KT 18/07 A2999 RMK A01 T01750067  RH  050%=      5-min Rain = 0
KTIS 151715Z 27013G18KT 18/07 A2999 RMK A01 T01760066  RH  049%=      5-min Rain = 0
KTIS 151720Z 27014KT 18/07 A2998 RMK A01 T01750065  RH  049%=      5-min Rain = 0
KTIS 151725Z 27015KT 18/06 A2998 RMK A01 T01750064  RH  049%=      5-min Rain = 0
KTIS 151730Z 27016KT 18/06 A2998 RMK A01 T01770063  RH  048%=      5-min Rain = 0
KTIS 151735Z 27015G20KT 18/06 A2998 RMK A01 T01790063  RH  047%=      5-min Rain = 0
KTIS 151740Z 27015G21KT 19/07 A2998 RMK A01 T01860065  RH  046%=      5-min Rain = 0
KTIS 151745Z 26016G22KT 19/07 A2998 RMK A01 T01920065  RH  044%=      5-min Rain = 0
KTIS 151750Z 26019G24KT 19/06 A2998 RMK A01 T01940064  RH  043%=      5-min Rain = 0
KTIS 151755Z 26018G25KT 20/07 A2997 RMK A01 T01970065  RH  043%=      5-min Rain = 0
KTIS 151800Z 26017G23KT 20/07 A2997 RMK A01 T02030065  RH  041%=      5-min Rain = 0
KTIS 151805Z 25019G26KT 21/07 A2997 RMK A01 T02060065  RH  040%=      5-min Rain = 0
KTIS 151810Z 26019G27KT 21/07 A2997 RMK A01 T02070065  RH  040%=      5-min Rain = 0
KTIS 151815Z 26019G25KT 21/07 A2997 RMK A01 T02120065  RH  039%=      5-min Rain = 0
KTIS 151820Z 25021G28KT 21/07 A2996 RMK A01 T02110065  RH  039%=      5-min Rain = 0
KTIS 151825Z 26020G25KT 21/06 A2997 RMK A01 T02100064  RH  039%=      5-min Rain = 0
KTIS 151830Z 26020G26KT 21/06 A2997 RMK A01 T02070064  RH  040%=      5-min Rain = 0
KTIS 151835Z 25020G30KT 21/06 A2997 RMK A01 T02060063  RH  040%=      5-min Rain = 0
KTIS 151840Z 25019G25KT 21/06 A2997 RMK A01 T02050063  RH  040%=      5-min Rain = 0
KTIS 151845Z 25019G25KT 21/06 A2997 RMK A01 T02070063  RH  040%=      5-min Rain = 0
KTIS 151850Z 24021G28KT 21/06 A2996 RMK A01 T02090063  RH  039%=      5-min Rain = 0
KTIS 151855Z 26019G25KT 21/06 A2996 RMK A01 T02100063  RH  039%=      5-min Rain = 0
KTIS 151900Z 25021G26KT 21/06 A2996 RMK A01 T02100063  RH  039%=      5-min Rain = 0
KTIS 151905Z 24019G25KT 21/06 A2996 RMK A01 T02100063  RH  039%=      5-min Rain = 0
KTIS 151910Z 25019G25KT 21/06 A2995 RMK A01 T02090063  RH  039%=      5-min Rain = 0
KTIS 151915Z 26018G23KT 21/06 A2995 RMK A01 T02090062  RH  039%=      5-min Rain = 0
KTIS 151920Z 26019G24KT 21/06 A2994 RMK A01 T02090062  RH  039%=      5-min Rain = 0
KTIS 151925Z 25018G25KT 21/06 A2994 RMK A01 T02070062  RH  039%=      5-min Rain = 0
KTIS 151930Z 25020G25KT 21/06 A2994 RMK A01 T02060062  RH  040%=      5-min Rain = 0
KTIS 151935Z 25018G23KT 21/06 A2993 RMK A01 T02050062  RH  040%=      5-min Rain = 0
KTIS 151940Z 26019G26KT 21/06 A2993 RMK A01 T02090063  RH  039%=      5-min Rain = 0
KTIS 151945Z 26019G24KT 21/06 A2993 RMK A01 T02100064  RH  039%=      5-min Rain = 0
KTIS 151950Z 25021G28KT 21/06 A2992 RMK A01 T02120063  RH  038%=      5-min Rain = 0
KTIS 151955Z 25017G22KT 21/06 A2992 RMK A01 T02120064  RH  039%=      5-min Rain = 0
KTIS 152000Z 25019G25KT 22/07 A2992 RMK A01 T02180065  RH  038%=      5-min Rain = 0
KTIS 152005Z 25019G25KT 22/07 A2991 RMK A01 T02180065  RH  038%=      5-min Rain = 0
KTIS 152010Z 25017G24KT 22/07 A2991 RMK A01 T02200066  RH  037%=      5-min Rain = 0
KTIS 152015Z 25016KT 22/07 A2991 RMK A01 T02220066  RH  037%=      5-min Rain = 0
KTIS 152020Z 25017KT 22/07 A2991 RMK A01 T02190066  RH  038%=      5-min Rain = 0
KTIS 152025Z 24021G27KT 22/07 A2991 RMK A01 T02200066  RH  037%=      5-min Rain = 0
KTIS 152030Z 25019G28KT 22/07 A299 RMK A01 T02200067  RH  038%=      5-min Rain = 0
KTIS 152035Z 25022G28KT 22/07 A299 RMK A01 T02210067  RH  037%=      5-min Rain = 0
KTIS 152040Z 25020G27KT 22/07 A299 RMK A01 T02240067  RH  037%=      5-min Rain = 0
KTIS 152045Z 25020KT 22/07 A299 RMK A01 T02230067  RH  037%=      5-min Rain = 0
KTIS 152050Z 26021G26KT 22/07 A299 RMK A01 T02230068  RH  037%=      5-min Rain = 0
KTIS 152055Z 26019G24KT 23/07 A299 RMK A01 T02270068  RH  036%=      5-min Rain = 0
KTIS 152100Z 26019G27KT 23/07 A299 RMK A01 T02260068  RH  036%=      5-min Rain = 0
KTIS 152105Z 26019G24KT 23/07 A299 RMK A01 T02260067  RH  036%=      5-min Rain = 0
KTIS 152110Z 26019G27KT 23/07 A299 RMK A01 T02270067  RH  036%=      5-min Rain = 0
KTIS 152115Z 26019G25KT 23/07 A299 RMK A01 T02290067  RH  036%=      5-min Rain = 0
KTIS 152120Z 27019KT 23/07 A299 RMK A01 T02280066  RH  036%=      5-min Rain = 0
KTIS 152125Z 27019G27KT 23/07 A299 RMK A01 T02260065  RH  036%=      5-min Rain = 0
KTIS 152130Z 26021G27KT 22/07 A299 RMK A01 T02210065  RH  037%=      5-min Rain = 0
KTIS 152135Z 26020G26KT 22/07 A299 RMK A01 T02210065  RH  037%=      5-min Rain = 0
KTIS 152140Z 27017G23KT 22/07 A299 RMK A01 T02210066  RH  037%=      5-min Rain = 0
KTIS 152145Z 26020KT 23/07 A299 RMK A01 T02250067  RH  036%=      5-min Rain = 0
KTIS 152150Z 26019KT 23/07 A299 RMK A01 T02300067  RH  035%=      5-min Rain = 0
KTIS 152155Z 26020G26KT 23/07 A299 RMK A01 T02290066  RH  035%=      5-min Rain = 0
KTIS 152200Z 26018KT 23/07 A299 RMK A01 T02250066  RH  036%=      5-min Rain = 0
KTIS 152205Z 27016G23KT 22/07 A2991 RMK A01 T02220065  RH  037%=      5-min Rain = 0
KTIS 152210Z 26017G23KT 22/07 A2991 RMK A01 T02170065  RH  038%=      5-min Rain = 0
KTIS 152215Z 26016G21KT 22/07 A2991 RMK A01 T02150065  RH  038%=      5-min Rain = 0
KTIS 152220Z 26017G23KT 22/07 A2991 RMK A01 T02150065  RH  038%=      5-min Rain = 0
KTIS 152225Z 26015G22KT 22/07 A2991 RMK A01 T02150065  RH  038%=      5-min Rain = 0
KTIS 152230Z 26016G22KT 21/07 A2991 RMK A01 T02140066  RH  039%=      5-min Rain = 0
KTIS 152235Z 25016KT 22/07 A2991 RMK A01 T02170066  RH  038%=      5-min Rain = 0
KTIS 152240Z 26017KT 21/07 A2991 RMK A01 T02140065  RH  038%=      5-min Rain = 0
KTIS 152245Z 26015G21KT 21/07 A2991 RMK A01 T02120065  RH  039%=      5-min Rain = 0
KTIS 152250Z 26016G22KT 21/07 A2991 RMK A01 T02110065  RH  039%=      5-min Rain = 0
KTIS 152255Z 26017G23KT 21/07 A2991 RMK A01 T02090065  RH  040%=      5-min Rain = 0
KTIS 152300Z 25016G22KT 21/07 A2991 RMK A01 T02070065  RH  040%=      5-min Rain = 0
KTIS 152305Z 26016G22KT 21/07 A2991 RMK A01 T02070065  RH  040%=      5-min Rain = 0
KTIS 152310Z 26018KT 21/07 A2991 RMK A01 T02060065  RH  040%=      5-min Rain = 0
KTIS 152315Z 26016G21KT 21/07 A2992 RMK A01 T02050065  RH  041%=      5-min Rain = 0
KTIS 152320Z 25016G21KT 20/07 A2992 RMK A01 T02040065  RH  041%=      5-min Rain = 0
KTIS 152325Z 25015KT 20/06 A2992 RMK A01 T02030064  RH  041%=      5-min Rain = 0
KTIS 152330Z 25015G20KT 20/06 A2992 RMK A01 T02010064  RH  041%=      5-min Rain = 0
KTIS 152335Z 25017G22KT 20/06 A2992 RMK A01 T02000064  RH  042%=      5-min Rain = 0
KTIS 152340Z 24016KT 20/06 A2992 RMK A01 T01990064  RH  042%=      5-min Rain = 0
KTIS 152345Z 24016KT 20/06 A2992 RMK A01 T01980064  RH  042%=      5-min Rain = 0
KTIS 152350Z 24015KT 20/06 A2992 RMK A01 T01970064  RH  043%=      5-min Rain = 0
KTIS 152355Z 24015G20KT 20/06 A2992 RMK A01 T01950064  RH  043%=      5-min Rain = 0
KTIS 160000Z 24013KT 19/06 A2992 RMK A01 T01930064  RH  043%=      5-min Rain = 0
KTIS 160005Z 25013KT 19/06 A2992 RMK A01 T01920064  RH  044%=      5-min Rain = 0
KTIS 160010Z 25013KT 19/06 A2993 RMK A01 T01900064  RH  044%=      5-min Rain = 0
KTIS 160015Z 25011KT 19/06 A2993 RMK A01 T01880063  RH  045%=      5-min Rain = 0
KTIS 160020Z 26011G16KT 19/06 A2994 RMK A01 T01860063  RH  045%=      5-min Rain = 0
KTIS 160025Z 25013G18KT 18/06 A2994 RMK A01 T01840062  RH  045%=      5-min Rain = 0
KTIS 160030Z 25015G21KT 18/06 A2994 RMK A01 T01830062  RH  046%=      5-min Rain = 0
KTIS 160035Z 25013G18KT 18/06 A2994 RMK A01 T01820062  RH  046%=      5-min Rain = 0
KTIS 160040Z 25013KT 18/06 A2994 RMK A01 T01800063  RH  047%=      5-min Rain = 0
KTIS 160045Z 24012KT 18/06 A2994 RMK A01 T01790063  RH  047%=      5-min Rain = 0
KTIS 160050Z 25012KT 18/06 A2994 RMK A01 T01770063  RH  048%=      5-min Rain = 0
KTIS 160055Z 25012KT 18/06 A2994 RMK A01 T01760063  RH  048%=      5-min Rain = 0
KTIS 160100Z 26013KT 18/06 A2994 RMK A01 T01750064  RH  049%=      5-min Rain = 0
KTIS 160105Z 25013KT 17/06 A2995 RMK A01 T01730064  RH  049%=      5-min Rain = 0
KTIS 160110Z 26014KT 17/07 A2995 RMK A01 T01720065  RH  050%=      5-min Rain = 0
KTIS 160115Z 26014KT 17/07 A2995 RMK A01 T01710066  RH  051%=      5-min Rain = 0
KTIS 160120Z 26014KT 17/07 A2995 RMK A01 T01700067  RH  051%=      5-min Rain = 0
KTIS 160125Z 25013KT 17/07 A2995 RMK A01 T01700068  RH  052%=      5-min Rain = 0
KTIS 160130Z 25013KT 17/07 A2995 RMK A01 T01690068  RH  052%=      5-min Rain = 0
KTIS 160135Z 25014G19KT 17/07 A2996 RMK A01 T01690069  RH  052%=      5-min Rain = 0
KTIS 160140Z 25013KT 17/07 A2996 RMK A01 T01680069  RH  053%=      5-min Rain = 0
KTIS 160145Z 26012KT 17/07 A2996 RMK A01 T01660069  RH  053%=      5-min Rain = 0
KTIS 160150Z 26012KT 16/07 A2997 RMK A01 T01640069  RH  054%=      5-min Rain = 0
KTIS 160155Z 26013G18KT 16/07 A2998 RMK A01 T01630070  RH  055%=      5-min Rain = 0
KTIS 160200Z 26012KT 16/07 A2998 RMK A01 T01620069  RH  055%=      5-min Rain = 0
KTIS 160205Z 26012G17KT 16/07 A2998 RMK A01 T01600069  RH  056%=      5-min Rain = 0
KTIS 160210Z 26012KT 16/07 A2998 RMK A01 T01590069  RH  056%=      5-min Rain = 0
KTIS 160215Z 25012KT 16/07 A2998 RMK A01 T01570069  RH  057%=      5-min Rain = 0
KTIS 160220Z 25013KT 16/07 A2998 RMK A01 T01560069  RH  057%=      5-min Rain = 0
KTIS 160225Z 25012KT 16/07 A2998 RMK A01 T01550068  RH  057%=      5-min Rain = 0
KTIS 160230Z 26012KT 15/07 A2998 RMK A01 T01540067  RH  057%=      5-min Rain = 0
KTIS 160235Z 26013KT 15/07 A2999 RMK A01 T01530066  RH  057%=      5-min Rain = 0
KTIS 160240Z 26013KT 15/07 A2999 RMK A01 T01520066  RH  057%=      5-min Rain = 0
KTIS 160245Z 25012KT 15/07 A2999 RMK A01 T01500065  RH  058%=      5-min Rain = 0
KTIS 160250Z 25012KT 15/07 A30 RMK A01 T01490065  RH  058%=      5-min Rain = 0
KTIS 160255Z 25014G19KT 15/07 A30 RMK A01 T01490066  RH  058%=      5-min Rain = 0
KTIS 160300Z 25014KT 15/07 A30 RMK A01 T01510065  RH  057%=      5-min Rain = 0
KTIS 160305Z 25013KT 15/06 A30 RMK A01 T01490064  RH  058%=      5-min Rain = 0
KTIS 160310Z 25014KT 15/06 A30 RMK A01 T01470064  RH  058%=      5-min Rain = 0
KTIS 160315Z 25014KT 15/06 A3001 RMK A01 T01470063  RH  058%=      5-min Rain = 0
KTIS 160320Z 26013KT 15/06 A3001 RMK A01 T01450062  RH  058%=      5-min Rain = 0
KTIS 160325Z 26014G19KT 14/06 A3001 RMK A01 T01440061  RH  058%=      5-min Rain = 0
KTIS 160330Z 27014G19KT 15/06 A3001 RMK A01 T01460060  RH  057%=      5-min Rain = 0
KTIS 160335Z 27014KT 15/06 A3002 RMK A01 T01450060  RH  057%=      5-min Rain = 0
KTIS 160340Z 27013G18KT 14/06 A3002 RMK A01 T01430059  RH  058%=      5-min Rain = 0
KTIS 160345Z 27013KT 14/06 A3002 RMK A01 T01420058  RH  058%=      5-min Rain = 0
KTIS 160350Z 28014KT 14/06 A3002 RMK A01 T01420058  RH  058%=      5-min Rain = 0
KTIS 160355Z 28013KT 14/06 A3002 RMK A01 T01410057  RH  058%=      5-min Rain = 0
KTIS 160400Z 28014KT 14/06 A3003 RMK A01 T01400056  RH  058%=      5-min Rain = 0
KTIS 160405Z 28015G20KT 14/06 A3004 RMK A01 T01400055  RH  057%=      5-min Rain = 0
KTIS 160410Z 28014G19KT 14/05 A3004 RMK A01 T01400054  RH  057%=      5-min Rain = 0
KTIS 160415Z 27014G19KT 14/05 A3004 RMK A01 T01410053  RH  056%=      5-min Rain = 0
KTIS 160420Z 27015G21KT 14/05 A3004 RMK A01 T01420051  RH  055%=      5-min Rain = 0
KTIS 160425Z 28014KT 14/05 A3004 RMK A01 T01440050  RH  054%=      5-min Rain = 0
KTIS 160430Z 28014KT 14/05 A3004 RMK A01 T01430048  RH  054%=      5-min Rain = 0
KTIS 160435Z 28014KT 14/05 A3004 RMK A01 T01430048  RH  053%=      5-min Rain = 0
KTIS 160440Z 28013KT 14/05 A3005 RMK A01 T01430047  RH  053%=      5-min Rain = 0
KTIS 160445Z 28013KT 14/05 A3005 RMK A01 T01420047  RH  053%=      5-min Rain = 0
KTIS 160450Z 28013KT 14/05 A3006 RMK A01 T01410047  RH  054%=      5-min Rain = 0
KTIS 160455Z 28012KT 14/05 A3006 RMK A01 T01400046  RH  054%=      5-min Rain = 0
KTIS 160500Z 28012KT 14/05 A3006 RMK A01 T01380046  RH  054%=      5-min Rain = 0
KTIS 160505Z 28011KT 14/05 A3006 RMK A01 T01360046  RH  055%=      5-min Rain = 0
KTIS 160510Z 28012KT 14/05 A3006 RMK A01 T01350045  RH  055%=      5-min Rain = 0
KTIS 160515Z 28012KT 13/05 A3006 RMK A01 T01330045  RH  056%=      5-min Rain = 0
KTIS 160520Z 28013KT 13/04 A3007 RMK A01 T01320044  RH  056%=      5-min Rain = 0
KTIS 160525Z 28012KT 13/04 A3007 RMK A01 T01330044  RH  055%=      5-min Rain = 0
KTIS 160530Z 28013KT 13/04 A3007 RMK A01 T01330042  RH  055%=      5-min Rain = 0
KTIS 160535Z 28013KT 13/04 A3007 RMK A01 T01340041  RH  054%=      5-min Rain = 0
KTIS 160540Z 28013KT 14/04 A3007 RMK A01 T01350040  RH  053%=      5-min Rain = 0
KTIS 160545Z 29014KT 14/04 A3008 RMK A01 T01370037  RH  052%=      5-min Rain = 0
KTIS 160550Z 29014KT 14/04 A3008 RMK A01 T01380036  RH  051%=      5-min Rain = 0
KTIS 160555Z 29013KT 14/03 A3008 RMK A01 T01370034  RH  051%=      5-min Rain = 0

Page generated in 0.0381 seconds.